Time;durP1;ratioP1;P1;durP2;ratioP2;P2;SDS_P1;SDS_P2;PMS_P1;PMS_P2;Temp;Humidity;BMP_temperature;BMP_pressure;BME280_temperature;BME280_humidity;BME280_pressure;Samples;Min_cycle;Max_cycle;Signal;HPM_P1;HPM_P2
2021/06/11 00:01:50;;;;;;;1.50;1.40;;;25.20;45.90;;;28.97;30.97;101612.09;5155599;27;20103;-54
2021/06/11 00:04:15;;;;;;;1.67;1.58;;;25.20;45.90;;;28.98;31.05;101613.78;5155269;27;20065;-56
2021/06/11 00:06:41;;;;;;;1.45;1.35;;;25.20;46.00;;;28.94;30.91;101601.56;5155626;27;20058;-51
2021/06/11 00:09:07;;;;;;;1.60;1.50;;;25.20;46.00;;;28.95;30.93;101602.41;5155112;27;20043;-55
2021/06/11 00:11:34;;;;;;;1.50;1.40;;;25.20;46.00;;;28.91;30.93;101598.28;5155249;27;20051;-53
2021/06/11 00:14:00;;;;;;;1.55;1.45;;;25.20;46.00;;;28.93;30.83;101607.91;5155407;27;20058;-52
2021/06/11 00:16:26;;;;;;;1.48;1.38;;;25.20;46.10;;;28.94;31.10;101603.41;5155367;27;20101;-54
2021/06/11 00:18:51;;;;;;;1.45;1.35;;;25.20;46.10;;;28.90;31.13;101601.94;5154846;27;20047;-55
2021/06/11 00:21:17;;;;;;;1.60;1.50;;;25.20;46.10;;;28.90;31.20;101597.44;5155246;27;20413;-53
2021/06/11 00:23:44;;;;;;;1.40;1.30;;;25.10;46.10;;;28.90;31.00;101599.25;5155050;27;20047;-54
2021/06/11 00:26:10;;;;;;;1.67;1.58;;;25.10;46.10;;;28.85;31.05;101590.72;5154918;27;20510;-53
2021/06/11 00:28:36;;;;;;;1.73;1.30;;;25.10;46.10;;;28.88;31.08;101598.53;5154891;27;20043;-53
2021/06/11 00:31:05;;;;;;;1.40;1.30;;;25.10;46.10;;;28.88;31.32;101593.16;5154897;27;20415;-56
2021/06/11 00:33:31;;;;;;;1.38;1.27;;;25.10;46.10;;;28.83;31.05;101590.84;5155450;27;20042;-56
2021/06/11 00:35:56;;;;;;;1.60;1.50;;;25.00;46.10;;;28.85;31.19;101602.34;5135981;27;20100;-53
2021/06/11 00:38:22;;;;;;;1.42;1.33;;;25.10;46.20;;;28.83;30.96;101585.47;5154477;27;20073;-53
2021/06/11 00:40:48;;;;;;;1.40;1.30;;;25.10;46.30;;;28.80;30.99;101588.41;5155257;27;20383;-51
2021/06/11 00:43:14;;;;;;;1.23;1.15;;;25.00;46.20;;;28.82;31.28;101600.78;5154583;27;20499;-52
2021/06/11 00:45:41;;;;;;;1.58;1.48;;;25.00;46.30;;;28.81;31.14;101595.50;5154312;27;20055;-53
2021/06/11 00:48:08;;;;;;;1.50;1.40;;;25.00;46.30;;;28.80;31.24;101583.91;5154686;27;20392;-54
2021/06/11 00:50:36;;;;;;;1.70;1.60;;;25.00;46.30;;;28.80;31.32;101589.28;5154510;27;20551;-50
2021/06/11 00:53:02;;;;;;;1.40;1.30;;;25.00;46.30;;;28.77;31.27;101583.31;5154288;27;20046;-53
2021/06/11 00:55:29;;;;;;;1.65;1.55;;;25.00;46.30;;;28.79;31.35;101600.19;5154428;27;20501;-54
2021/06/11 00:57:56;;;;;;;1.58;1.42;;;25.00;46.30;;;28.75;31.11;101585.25;5154508;27;20499;-54
2021/06/11 01:00:22;;;;;;;1.50;1.40;;;25.00;46.40;;;28.77;31.41;101586.84;5154502;27;20038;-53
2021/06/11 01:02:48;;;;;;;1.50;1.40;;;25.00;46.40;;;28.74;31.16;101576.34;5154305;27;20057;-55
2021/06/11 01:05:14;;;;;;;1.70;1.60;;;25.00;46.40;;;28.75;31.14;101578.06;5154341;27;20094;-56
2021/06/11 01:07:46;;;;;;;1.65;1.48;;;24.90;46.30;;;28.72;31.06;101574.75;5134589;27;20500;-52
2021/06/11 01:10:12;;;;;;;1.40;1.30;;;25.00;46.50;;;28.73;31.34;101588.06;5136216;27;20043;-55
2021/06/11 01:12:38;;;;;;;1.83;1.73;;;24.90;46.40;;;28.71;31.09;101581.13;5133802;27;20184;-54
2021/06/11 01:15:07;;;;;;;1.20;1.20;;;24.90;46.50;;;28.74;31.31;101588.94;5135930;27;20051;-55
2021/06/11 01:17:34;;;;;;;1.30;1.20;;;24.90;46.50;;;28.72;31.29;101581.00;5154495;27;20403;-54
2021/06/11 01:20:05;;;;;;;1.58;1.42;;;24.90;46.50;;;28.71;31.33;101587.34;5154116;27;20042;-57
2021/06/11 01:23:12;;;;;;;1.60;1.50;;;24.90;46.50;;;28.68;31.48;101584.91;5154089;27;20038;-52
2021/06/11 01:26:28;;;;;;;1.40;1.30;;;24.90;46.60;;;28.68;31.15;101581.38;5154526;27;20053;-54
2021/06/11 01:29:00;;;;;;;1.65;1.55;;;24.90;46.60;;;28.64;31.11;101583.47;5135459;27;20108;-57
2021/06/11 01:31:30;;;;;;;1.40;1.30;;;24.90;46.60;;;28.65;31.19;101582.47;5134339;27;20043;-53
2021/06/11 01:34:02;;;;;;;1.40;1.30;;;24.80;46.60;;;28.65;31.54;101582.47;5153988;27;20043;-50
2021/06/11 01:36:39;;;;;;;1.55;1.45;;;24.80;46.60;;;28.63;31.61;101588.03;5135374;27;20053;-52
2021/06/11 01:39:08;;;;;;;1.60;1.50;;;24.80;46.60;;;28.63;31.21;101588.03;5154214;27;20050;-55
2021/06/11 01:41:35;;;;;;;1.40;1.30;;;24.80;46.60;;;28.61;31.31;101578.34;5135854;27;20097;-54
2021/06/11 01:44:03;;;;;;;1.70;1.60;;;24.80;46.60;;;28.60;31.48;101582.88;5135330;27;20067;-56
2021/06/11 01:46:34;;;;;;;1.50;1.40;;;24.80;46.70;;;28.61;31.52;101584.56;5153823;27;20412;-54
2021/06/11 01:49:02;;;;;;;1.70;1.60;;;24.80;46.70;;;28.62;31.40;101593.53;5154225;27;20050;-53
2021/06/11 01:51:30;;;;;;;1.27;1.17;;;24.80;46.70;;;28.59;31.40;101580.31;5153777;27;20492;-52
2021/06/11 01:53:59;;;;;;;1.58;1.48;;;24.80;46.70;;;28.58;31.39;101583.97;5135614;27;20404;-54
2021/06/11 01:56:25;;;;;;;1.50;1.40;;;24.70;46.70;;;28.59;31.57;101585.69;5135461;27;20047;-51
2021/06/11 01:58:52;;;;;;;2.13;1.30;;;24.80;46.80;;;28.58;31.54;101589.38;5135172;27;20047;-55
2021/06/11 02:01:19;;;;;;;1.50;1.40;;;24.70;46.80;;;28.56;31.68;101585.94;5135750;27;20094;-55
2021/06/11 02:03:47;;;;;;;1.50;1.40;;;24.80;46.90;;;28.57;31.67;101587.69;5153433;27;20038;-51
2021/06/11 02:06:17;;;;;;;1.67;1.58;;;24.80;46.90;;;28.55;31.46;101577.00;5154137;27;20090;-53
2021/06/11 02:08:50;;;;;;;1.50;1.35;;;24.70;46.80;;;28.52;31.64;101585.31;5157750;27;20039;-53
2021/06/11 02:11:17;;;;;;;1.60;1.50;;;24.70;46.80;;;28.54;31.46;101582.50;5157375;27;20476;-52
2021/06/11 02:13:47;;;;;;;1.52;1.42;;;24.70;46.90;;;28.52;31.39;101581.75;5138516;27;20043;-55
2021/06/11 02:16:15;;;;;;;1.50;1.40;;;24.70;46.90;;;28.54;31.43;101588.72;5138729;27;20134;-54
2021/06/11 02:18:42;;;;;;;1.40;1.30;;;24.70;46.90;;;28.52;31.43;101585.31;5138275;27;20506;-54
2021/06/11 02:21:10;;;;;;;1.50;1.40;;;24.70;46.90;;;28.49;31.45;101577.50;5157235;27;20074;-49
2021/06/11 02:23:37;;;;;;;1.30;1.20;;;24.70;46.90;;;28.51;31.84;101575.53;5138748;27;20123;-51
2021/06/11 02:26:04;;;;;;;1.63;1.52;;;24.70;47.00;;;28.46;31.77;101575.91;5156978;27;20398;-54
2021/06/11 02:28:30;;;;;;;1.48;1.38;;;24.70;46.90;;;28.50;31.84;101576.53;5156975;27;20073;-54
2021/06/11 02:30:58;;;;;;;1.30;1.30;;;24.70;47.50;;;28.45;31.49;101576.91;5156530;27;20070;-52
2021/06/11 02:33:25;;;;;;;1.40;1.30;;;24.70;47.00;;;28.46;31.84;101575.06;5156702;27;20491;-53
2021/06/11 02:35:51;;;;;;;1.48;1.38;;;24.60;46.90;;;28.44;31.53;101577.03;5156600;27;20051;-53
2021/06/11 02:38:16;;;;;;;1.20;1.20;;;24.70;47.50;;;28.45;31.61;101568.84;5156550;27;20046;-55
2021/06/11 02:40:42;;;;;;;1.60;1.50;;;24.70;47.00;;;28.45;31.55;101574.22;5156505;27;20050;-52
2021/06/11 02:43:12;;;;;;;1.40;1.30;;;24.60;47.00;;;28.39;31.70;101571.19;5156863;27;20439;-52
2021/06/11 02:46:18;;;;;;;1.60;1.50;;;24.60;47.00;;;28.40;31.72;101576.44;5156516;27;20047;-53
2021/06/11 02:48:53;;;;;;;1.40;1.30;;;24.60;47.00;;;28.41;31.68;101575.44;5156600;27;20066;-54
2021/06/11 02:51:37;;;;;;;1.30;1.20;;;24.60;47.00;;;28.38;31.80;101578.38;5120749;27;20516;-54
2021/06/11 02:54:09;;;;;;;2.55;1.60;;;24.60;47.10;;;28.39;31.71;101577.41;5156492;27;20051;-51
2021/06/11 02:56:45;;;;;;;1.50;1.40;;;24.60;47.10;;;28.35;31.85;101570.59;5137818;27;20080;-51
2021/06/11 02:59:21;;;;;;;1.58;1.48;;;24.60;47.10;;;28.35;31.92;101575.09;5136319;27;20086;-50
2021/06/11 03:01:55;;;;;;;1.70;1.60;;;24.60;47.10;;;28.37;31.81;101581.22;5136855;27;20051;-53
2021/06/11 03:04:25;;;;;;;1.98;1.70;;;24.60;47.10;;;28.38;31.92;101573.00;5137184;27;20130;-50
2021/06/11 03:06:52;;;;;;;1.70;1.60;;;24.60;47.00;;;28.39;31.72;101581.94;5137742;27;20086;-50
2021/06/11 03:09:21;;;;;;;1.50;1.40;;;24.70;47.00;;;28.44;31.78;101577.03;5156646;27;20073;-48
2021/06/11 03:11:50;;;;;;;1.30;1.23;;;24.70;47.50;;;28.43;31.73;101580.69;5138034;27;20039;-53
2021/06/11 03:14:17;;;;;;;1.50;1.40;;;24.70;47.00;;;28.44;31.63;101568.97;5136269;27;20054;-53
2021/06/11 03:16:48;;;;;;;1.70;1.60;;;24.70;47.00;;;28.48;31.40;101574.94;5155382;27;20067;-54
2021/06/11 03:19:18;;;;;;;1.48;1.38;;;24.70;47.00;;;28.46;31.62;101580.44;5156383;27;20042;-49
2021/06/11 03:21:51;;;;;;;1.77;1.67;;;24.70;46.90;;;28.48;31.49;101578.47;5137551;27;20418;-48
2021/06/11 03:24:33;;;;;;;1.27;1.17;;;24.70;47.40;;;28.49;31.55;101572.13;5120837;27;20054;-52
2021/06/11 03:27:38;;;;;;;1.52;1.42;;;24.70;46.90;;;28.49;31.67;101574.81;5120477;27;20046;-53
2021/06/11 03:30:11;;;;;;;1.60;1.50;;;24.70;46.90;;;28.50;31.79;101576.53;5137321;27;20047;-53
2021/06/11 03:32:48;;;;;;;1.40;1.30;;;24.70;46.80;;;28.50;31.52;101576.53;5156109;27;20480;-52
2021/06/11 03:35:19;;;;;;;1.27;1.20;;;24.80;46.80;;;28.56;31.87;101580.56;5137380;27;20071;-54
2021/06/11 03:37:49;;;;;;;1.52;1.42;;;24.80;46.80;;;28.57;31.72;101571.53;5156008;27;20443;-54
2021/06/11 03:40:22;;;;;;;1.48;1.38;;;24.80;46.70;;;28.62;31.69;101575.53;5155735;27;20384;-50
2021/06/11 03:42:48;;;;;;;1.40;1.30;;;24.90;46.60;;;28.67;31.27;101575.16;5156280;27;20043;-54
2021/06/11 03:45:15;;;;;;;1.77;1.67;;;24.90;46.50;;;28.72;31.55;101575.63;5137127;27;20058;-53
2021/06/11 03:47:42;;;;;;;1.33;1.23;;;25.00;46.40;;;28.73;31.55;101561.16;5119747;27;20050;-51
2021/06/11 03:50:10;;;;;;;1.27;1.17;;;25.00;46.40;;;28.77;31.05;101565.31;5137582;27;20047;-53
2021/06/11 03:52:39;;;;;;;1.40;1.30;;;25.10;46.30;;;28.83;31.05;101566.63;5119792;27;20074;-50
2021/06/11 03:55:13;;;;;;;1.70;1.60;;;25.10;46.10;;;28.86;31.05;101563.69;5136836;27;20039;-49
2021/06/11 03:57:41;;;;;;;1.50;1.40;;;25.20;46.00;;;28.93;31.11;101566.69;5136882;27;20070;-48
2021/06/11 04:00:08;;;;;;;1.40;1.30;;;25.20;45.90;;;29.00;31.23;101570.56;5136781;27;20043;-55
2021/06/11 04:02:35;;;;;;;1.30;1.25;;;25.30;45.90;;;29.01;30.91;101564.22;5120064;27;20053;-52
2021/06/11 04:05:02;;;;;;;1.27;1.27;;;25.30;45.80;;;29.07;31.04;101557.44;5137354;27;20043;-54
2021/06/11 04:07:35;;;;;;;1.50;1.40;;;25.30;45.70;;;29.13;30.75;101556.91;5137009;27;20046;-51
2021/06/11 04:10:15;;;;;;;1.33;1.23;;;25.40;45.70;;;29.16;30.92;101565.56;5136708;27;20054;-49
2021/06/11 04:12:48;;;;;;;1.50;1.40;;;25.40;45.60;;;29.21;30.69;101551.75;5155223;27;20046;-53
2021/06/11 04:15:14;;;;;;;1.50;1.40;;;25.50;45.60;;;29.27;30.51;101553.91;5155459;27;20050;-52
2021/06/11 04:17:47;;;;;;;1.58;1.48;;;25.50;45.50;;;29.30;30.72;101552.78;5135562;27;20455;-55
2021/06/11 04:20:20;;;;;;;1.55;1.33;;;25.50;45.40;;;29.37;30.39;101554.81;5155055;27;20047;-52
2021/06/11 04:22:50;;;;;;;1.48;1.38;;;25.60;45.40;;;29.40;30.52;101558.22;5136877;27;20043;-53
2021/06/11 04:25:17;;;;;;;1.40;1.35;;;25.60;45.40;;;29.44;30.53;101560.53;5136455;27;20046;-54
2021/06/11 04:27:45;;;;;;;1.30;1.20;;;25.60;45.30;;;29.49;30.20;101563.66;5154595;27;20038;-52
2021/06/11 04:30:14;;;;;;;1.20;1.20;;;25.70;45.30;;;29.54;30.16;101565.97;5135640;27;20122;-51
2021/06/11 04:32:41;;;;;;;1.40;1.30;;;25.70;45.20;;;29.61;30.09;101567.13;5136377;27;20045;-51
2021/06/11 04:35:08;;;;;;;1.30;1.20;;;25.80;45.20;;;29.66;30.23;101569.41;5154836;27;20039;-50
2021/06/11 04:37:35;;;;;;;1.40;1.30;;;25.80;45.10;;;29.71;30.25;101568.00;5154662;27;20149;-52
2021/06/11 04:40:03;;;;;;;1.40;1.30;;;25.80;45.10;;;29.73;29.92;101573.25;5154788;27;20152;-53
2021/06/11 04:42:29;;;;;;;1.48;1.38;;;25.90;45.10;;;29.79;29.89;101572.75;5154677;27;20045;-51
2021/06/11 04:44:57;;;;;;;1.35;1.25;;;25.90;45.00;;;29.85;30.06;101569.50;5155310;27;20129;-51
2021/06/11 04:47:23;;;;;;;1.38;1.27;;;26.00;45.00;;;29.88;29.93;101565.69;5154490;27;20400;-52
2021/06/11 04:49:49;;;;;;;1.60;1.50;;;26.00;44.90;;;29.92;29.72;101567.97;5136455;27;20038;-48
2021/06/11 04:52:15;;;;;;;1.63;1.42;;;26.10;44.80;;;29.97;29.69;101564.88;5154451;27;20395;-49
2021/06/11 04:54:40;;;;;;;1.60;1.50;;;26.10;44.70;;;30.01;29.68;101560.91;5154839;27;20384;-46
2021/06/11 04:57:07;;;;;;;1.50;1.40;;;26.10;44.70;;;30.04;29.80;101568.72;5154384;27;20046;-50
2021/06/11 04:59:32;;;;;;;1.63;1.52;;;26.10;44.60;;;30.08;29.67;101563.91;5154448;27;20084;-49
2021/06/11 05:01:58;;;;;;;1.40;1.30;;;26.10;44.60;;;30.12;29.38;101559.91;5154976;27;20051;-48
2021/06/11 05:04:24;;;;;;;1.45;1.35;;;26.20;44.60;;;30.16;29.36;101557.81;5154445;27;20050;-51
2021/06/11 05:06:51;;;;;;;1.42;1.33;;;26.30;44.50;;;30.20;29.59;101559.22;5154299;27;20543;-48
2021/06/11 05:09:17;;;;;;;1.40;1.30;;;26.30;44.50;;;30.24;29.43;101556.13;5154317;27;20130;-51
2021/06/11 05:11:42;;;;;;;1.50;1.40;;;26.30;44.40;;;30.28;29.38;101554.00;5135629;27;20051;-52
2021/06/11 05:14:08;;;;;;;1.52;1.42;;;26.40;44.40;;;30.32;29.26;101552.72;5154439;27;20042;-50
2021/06/11 05:16:34;;;;;;;1.50;1.40;;;26.40;44.30;;;30.39;29.37;101559.28;5154399;27;20121;-50
2021/06/11 05:19:00;;;;;;;1.55;1.30;;;26.40;44.20;;;30.42;29.22;101560.84;5154193;27;20046;-49
2021/06/11 05:21:26;;;;;;;1.50;1.40;;;26.50;44.20;;;30.42;29.25;101553.63;5154097;27;20046;-54
2021/06/11 05:23:51;;;;;;;1.38;1.27;;;26.50;44.20;;;30.43;29.17;101543.69;5154054;27;20488;-51
2021/06/11 05:26:17;;;;;;;1.35;1.25;;;26.50;44.10;;;30.50;29.09;101554.75;5154163;27;20484;-51
2021/06/11 05:28:44;;;;;;;1.85;1.40;;;26.60;44.10;;;30.54;29.12;101550.75;5135613;27;20495;-51
2021/06/11 05:31:11;;;;;;;1.40;1.30;;;26.60;44.00;;;30.56;29.09;101556.91;5153994;27;20046;-51
2021/06/11 05:33:38;;;;;;;1.60;1.50;;;26.60;43.90;;;30.61;28.93;101555.47;5153918;27;20437;-52
2021/06/11 05:36:05;;;;;;;1.30;1.20;;;26.60;43.90;;;30.63;28.90;101552.63;5153911;27;20050;-48
2021/06/11 05:38:31;;;;;;;1.15;1.10;;;26.70;44.00;;;30.66;28.91;101549.66;5153811;27;20046;-54
2021/06/11 05:40:58;;;;;;;1.23;1.20;;;26.70;43.90;;;30.70;28.90;101542.94;5155987;27;20484;-52
2021/06/11 05:43:24;;;;;;;1.25;1.25;;;26.70;43.80;;;30.71;28.99;101550.06;5157542;27;20564;-54
2021/06/11 05:45:50;;;;;;;1.50;1.40;;;26.80;43.80;;;30.75;28.79;101559.56;5157195;27;20074;-53
2021/06/11 05:48:16;;;;;;;1.30;1.20;;;26.80;43.70;;;30.76;28.81;101547.78;5157396;27;20095;-52
2021/06/11 05:50:42;;;;;;;1.30;1.20;;;26.90;43.70;;;30.81;28.66;101547.34;5157258;27;20042;-52
2021/06/11 05:53:09;;;;;;;1.13;1.13;;;26.90;43.60;;;30.84;28.67;101547.06;5136759;27;20515;-52
2021/06/11 05:55:35;;;;;;;1.55;1.38;;;27.00;43.60;;;30.89;28.65;101543.91;5157218;27;20049;-46
2021/06/11 05:58:01;;;;;;;1.30;1.20;;;27.00;43.50;;;30.93;28.63;101548.91;5157020;27;20056;-54
2021/06/11 06:00:27;;;;;;;1.55;1.45;;;27.00;43.40;;;31.01;28.66;101550.91;5157114;27;20047;-55
2021/06/11 06:02:53;;;;;;;1.40;1.30;;;27.10;43.90;;;31.02;28.58;101542.66;5157443;27;20054;-52
2021/06/11 06:05:19;;;;;;;1.30;1.20;;;27.10;43.30;;;31.08;28.53;101543.09;5157386;27;20504;-51
2021/06/11 06:07:45;;;;;;;1.13;1.05;;;27.20;43.30;;;31.14;28.48;101548.75;5157151;27;20070;-53
2021/06/11 06:10:13;;;;;;;1.42;1.33;;;27.20;43.20;;;31.18;28.26;101535.78;5121429;27;20051;-50
2021/06/11 06:12:39;;;;;;;1.55;1.30;;;27.30;43.10;;;31.21;28.27;101535.50;5119676;27;20369;-51
2021/06/11 06:15:06;;;;;;;1.38;1.27;;;27.30;43.00;;;31.28;28.25;101546.59;5157147;27;20107;-52
2021/06/11 06:17:35;;;;;;;1.20;1.10;;;27.40;43.00;;;31.31;28.17;101539.03;5156891;27;20050;-50
2021/06/11 06:20:04;;;;;;;1.30;1.20;;;27.40;42.90;;;31.37;28.33;101542.97;5156938;27;20051;-52
2021/06/11 06:22:30;;;;;;;1.30;1.20;;;27.50;42.80;;;31.38;28.06;101534.72;5156810;27;20047;-53
2021/06/11 06:24:56;;;;;;;1.20;1.20;;;27.50;42.70;;;31.46;28.05;101542.09;5157195;27;20547;-51
2021/06/11 06:27:22;;;;;;;1.48;1.38;;;27.50;42.60;;;31.51;28.00;101544.41;5138077;27;20071;-55
2021/06/11 06:29:47;;;;;;;1.50;1.40;;;27.60;42.60;;;31.53;27.87;101537.00;5157314;27;20039;-51
2021/06/11 06:32:13;;;;;;;1.30;1.20;;;27.70;42.50;;;31.56;27.65;101532.13;5156795;27;20411;-55
2021/06/11 06:34:39;;;;;;;1.70;1.30;;;27.70;42.40;;;31.65;28.05;101537.63;5156830;27;20051;-51
2021/06/11 06:37:06;;;;;;;1.88;1.20;;;27.80;42.40;;;31.69;27.90;101545.31;5136939;27;20062;-52
2021/06/11 06:39:32;;;;;;;1.55;1.45;;;27.80;42.30;;;31.72;27.70;101542.28;5156575;27;20043;-51
2021/06/11 06:41:58;;;;;;;1.60;1.50;;;27.90;42.20;;;31.76;27.78;101545.56;5138142;27;20534;-51
2021/06/11 06:44:24;;;;;;;1.40;1.30;;;28.00;42.10;;;31.83;27.71;101551.22;5156729;27;20127;-54
2021/06/11 06:46:50;;;;;;;1.52;1.42;;;28.00;42.00;;;31.85;27.60;101541.94;5156482;27;20054;-52
2021/06/11 06:49:15;;;;;;;1.20;1.20;;;28.10;41.90;;;31.90;27.56;101541.50;5156834;27;20043;-55
2021/06/11 06:51:41;;;;;;;1.73;1.63;;;28.20;41.80;;;31.96;27.24;101540.88;5155877;27;20035;-53
2021/06/11 06:54:07;;;;;;;1.65;1.55;;;28.20;41.70;;;32.00;27.28;101544.13;5156430;27;20042;-53
2021/06/11 06:56:33;;;;;;;1.60;1.30;;;28.20;41.50;;;32.04;27.11;101540.94;5156388;27;20051;-51
2021/06/11 06:58:59;;;;;;;1.20;1.20;;;28.30;41.50;;;32.08;27.03;101539.69;5156703;27;20039;-53
2021/06/11 07:01:26;;;;;;;1.63;1.20;;;28.40;41.50;;;32.13;26.98;101540.06;5156300;27;20039;-54
2021/06/11 07:03:59;;;;;;;1.60;1.45;;;28.40;41.40;;;32.15;27.24;101536.38;5156216;27;20427;-52
2021/06/11 07:06:25;;;;;;;1.52;1.33;;;28.50;41.30;;;32.21;27.11;101539.31;5156183;27;20043;-50
2021/06/11 07:08:52;;;;;;;1.65;1.20;;;28.50;41.20;;;32.27;26.79;101545.97;5136359;27;20045;-53
2021/06/11 07:11:18;;;;;;;1.30;1.20;;;28.50;41.10;;;32.27;27.12;101535.97;5156741;27;20532;-55
2021/06/11 07:13:44;;;;;;;2.63;1.60;;;28.60;41.10;;;32.35;26.96;101547.91;5155983;27;20407;-55
2021/06/11 07:16:10;;;;;;;1.63;1.40;;;28.60;41.00;;;32.36;26.69;101545.06;5156031;27;20071;-52
2021/06/11 07:18:38;;;;;;;1.38;1.27;;;28.70;41.00;;;32.42;27.04;101551.69;5156041;27;20465;-50
2021/06/11 07:21:07;;;;;;;1.33;1.23;;;28.70;40.90;;;32.46;26.80;101547.66;5155711;27;20066;-52
2021/06/11 07:23:36;;;;;;;1.42;1.33;;;28.70;40.90;;;32.49;26.96;101555.47;5155724;27;20502;-51
2021/06/11 07:26:06;;;;;;;1.30;1.20;;;28.80;40.90;;;32.49;26.79;101553.63;5155861;27;20047;-53
2021/06/11 07:28:37;;;;;;;3.63;1.42;;;28.80;40.80;;;32.56;26.60;101550.28;5155544;27;20059;-53
2021/06/11 07:31:05;;;;;;;2.55;1.50;;;28.80;40.80;;;32.56;26.56;101548.44;5155695;27;20039;-54
2021/06/11 07:33:31;;;;;;;2.15;1.52;;;28.90;40.80;;;32.61;26.74;101553.38;5155048;27;20506;-53
2021/06/11 07:35:58;;;;;;;3.15;1.38;;;28.90;40.70;;;32.64;26.38;101555.81;5155595;27;20051;-52
2021/06/11 07:38:25;;;;;;;1.45;1.35;;;28.90;40.70;;;32.66;26.51;101554.66;5155278;27;20047;-53
2021/06/11 07:40:53;;;;;;;1.92;1.30;;;28.90;40.60;;;32.67;26.16;101545.50;5155620;27;20058;-53
2021/06/11 07:43:22;;;;;;;1.33;1.23;;;28.90;40.50;;;32.71;26.30;101561.44;5135555;27;20512;-54
2021/06/11 07:45:49;;;;;;;4.85;1.25;;;29.00;40.60;;;32.71;26.25;101556.03;5155145;27;20139;-54
2021/06/11 07:48:16;;;;;;;1.58;1.42;;;29.00;40.60;;;32.76;26.55;101551.88;5155134;27;20481;-54
2021/06/11 07:50:42;;;;;;;1.52;1.42;;;29.00;40.50;;;32.77;26.33;101548.13;5155254;27;20429;-52
2021/06/11 07:53:08;;;;;;;1.50;1.40;;;29.00;40.50;;;32.76;26.36;101549.16;5155117;27;20053;-55
2021/06/11 07:55:34;;;;;;;1.48;1.38;;;29.00;40.60;;;32.80;26.43;101550.53;5155224;27;20043;-47
2021/06/11 07:58:00;;;;;;;2.40;1.38;;;29.10;40.40;;;32.81;26.11;101548.66;5155274;27;20038;-53
2021/06/11 08:00:27;;;;;;;3.22;1.83;;;29.10;40.40;;;32.82;26.55;101551.22;5155501;27;20130;-55
2021/06/11 08:02:57;;;;;;;1.73;1.40;;;29.10;40.60;;;32.84;26.41;101554.59;5155078;27;20049;-55
2021/06/11 08:05:24;;;;;;;6.28;2.15;;;29.20;40.50;;;32.87;26.09;101548.03;5155664;27;20054;-55
2021/06/11 08:07:50;;;;;;;5.63;1.70;;;29.10;40.40;;;32.90;26.08;101552.31;5155121;27;20042;-51
2021/06/11 08:10:16;;;;;;;1.92;1.48;;;29.20;40.50;;;32.91;26.04;101549.41;5155056;27;20062;-51
2021/06/11 08:12:41;;;;;;;3.10;1.42;;;29.20;40.50;;;32.89;26.44;101539.75;5155266;27;20070;-53
2021/06/11 08:15:07;;;;;;;4.05;1.42;;;29.20;40.50;;;32.91;26.13;101552.13;5155048;27;20050;-54
2021/06/11 08:17:34;;;;;;;3.45;1.45;;;29.20;40.40;;;32.92;26.43;101550.28;5155009;27;20399;-52
2021/06/11 08:19:59;;;;;;;2.45;1.40;;;29.20;40.40;;;32.91;26.14;101545.84;5155007;27;20057;-54
2021/06/11 08:22:25;;;;;;;5.13;1.90;;;29.10;40.40;;;32.90;26.22;101545.03;5155065;27;20042;-49
2021/06/11 08:24:51;;;;;;;3.90;2.10;;;29.20;40.40;;;32.94;26.09;101545.56;5154953;27;20049;-53
2021/06/11 08:27:17;;;;;;;8.98;2.85;;;29.20;40.60;;;32.90;26.48;101538.75;5154826;27;20046;-54
2021/06/11 08:29:43;;;;;;;16.40;3.20;;;29.20;40.50;;;32.91;26.60;101540.44;5154816;27;20435;-56
2021/06/11 08:32:08;;;;;;;7.93;2.10;;;29.20;41.10;;;32.92;26.50;101545.69;5154855;27;20081;-56
2021/06/11 08:34:36;;;;;;;7.28;2.40;;;29.20;40.60;;;32.90;26.67;101536.06;5154801;27;20099;-54
2021/06/11 08:37:07;;;;;;;11.48;2.15;;;29.20;40.50;;;32.87;26.43;101529.91;5154196;27;20047;-54
2021/06/11 08:39:34;;;;;;;10.02;2.45;;;29.20;40.50;;;32.90;26.13;101542.31;5154751;27;20054;-56
2021/06/11 08:42:01;;;;;;;8.95;2.30;;;29.20;40.60;;;32.87;26.10;101531.78;5154647;27;20059;-50
2021/06/11 08:44:27;;;;;;;11.40;2.95;;;29.20;40.50;;;32.85;26.47;101542.78;5154610;27;20039;-55
2021/06/11 08:46:55;;;;;;;6.13;2.40;;;29.20;40.50;;;32.85;26.14;101537.38;5154339;27;20054;-55
2021/06/11 08:49:23;;;;;;;9.10;1.80;;;29.20;40.50;;;32.86;26.34;101540.91;5155200;27;20426;-56
2021/06/11 08:51:51;;;;;;;5.93;2.17;;;29.20;40.50;;;32.85;26.35;101544.66;5155100;27;20075;-57
2021/06/11 08:54:18;;;;;;;8.23;2.50;;;29.20;40.50;;;32.79;26.29;101535.28;5154809;27;20042;-55
2021/06/11 08:56:44;;;;;;;7.57;2.47;;;29.10;40.50;;;32.78;26.58;101539.00;5154506;27;20043;-53
2021/06/11 08:59:11;;;;;;;7.18;2.15;;;29.20;40.60;;;32.79;26.18;101540.69;5154470;27;20055;-55
2021/06/11 09:01:37;;;;;;;8.75;2.55;;;29.20;40.60;;;32.76;26.49;101540.16;5154671;27;20400;-57
2021/06/11 09:04:03;;;;;;;6.90;2.08;;;29.10;40.50;;;32.78;26.19;101541.72;5135627;27;20042;-56
2021/06/11 09:06:29;;;;;;;6.68;2.10;;;29.10;40.50;;;32.73;26.42;101541.34;5154288;27;20485;-53
2021/06/11 09:08:57;;;;;;;6.63;2.08;;;29.10;40.50;;;32.73;26.42;101544.06;5154553;27;20046;-55
2021/06/11 09:11:33;;;;;;;5.97;1.88;;;29.10;40.50;;;32.70;26.60;101541.66;5154300;27;20049;-54
2021/06/11 09:14:06;;;;;;;7.68;1.98;;;29.10;40.50;;;32.66;26.37;101535.72;5153825;27;20042;-55
2021/06/11 09:16:53;;;;;;;7.72;2.47;;;29.10;40.60;;;32.64;26.94;101540.41;5154369;27;20046;-53
2021/06/11 09:19:19;;;;;;;5.68;1.60;;;29.00;40.60;;;32.64;26.39;101534.16;5154183;27;20503;-56
2021/06/11 09:21:50;;;;;;;6.03;2.13;;;29.00;40.50;;;32.60;26.74;101541.69;5153967;27;20051;-53
2021/06/11 09:24:24;;;;;;;;;;;29.00;40.60;;;32.74;26.38;101545.72;5154781;27;20047;-54
2021/06/11 09:27:06;;;;;;;6.53;2.42;;;29.00;40.60;;;32.64;26.55;101540.41;5154201;27;20420;-53
2021/06/11 09:29:45;;;;;;;6.45;2.35;;;29.00;40.60;;;32.59;26.87;101545.41;5153972;27;20088;-56
2021/06/11 09:32:24;;;;;;;7.45;3.25;;;29.00;40.60;;;32.54;26.66;101542.31;5154034;27;20054;-56
2021/06/11 09:35:10;;;;;;;10.45;2.55;;;29.00;41.10;;;32.53;26.79;101537.06;5154065;27;20038;-55
2021/06/11 09:37:39;;;;;;;6.05;2.70;;;29.00;40.60;;;32.53;26.51;101546.06;5153283;27;20046;-54
2021/06/11 09:40:11;;;;;;;6.97;2.60;;;29.00;40.60;;;32.55;26.63;101540.47;5153884;27;20556;-55
2021/06/11 09:42:41;;;;;;;5.13;1.95;;;29.00;40.60;;;32.50;26.70;101536.38;5154012;27;20035;-53
2021/06/11 09:45:14;;;;;;;8.00;2.42;;;29.00;40.60;;;32.49;26.77;101536.53;5153951;27;20123;-56
2021/06/11 09:47:51;;;;;;;8.40;2.17;;;29.00;40.60;;;32.50;26.68;101538.25;5154125;27;20559;-57
2021/06/11 09:50:36;;;;;;;7.47;2.25;;;29.00;40.60;;;32.46;26.99;101531.41;5135406;27;20470;-53
2021/06/11 09:53:12;;;;;;;8.63;2.38;;;29.00;40.60;;;32.49;26.60;101536.53;5153748;27;20095;-53
2021/06/11 09:55:51;;;;;;;5.00;1.90;;;29.00;40.60;;;32.47;27.11;101535.84;5153408;27;20043;-55
2021/06/11 09:58:27;;;;;;;7.93;2.25;;;29.00;40.60;;;32.45;26.86;101522.44;5153385;27;20119;-55
2021/06/11 10:01:01;;;;;;;11.23;2.70;;;29.00;40.60;;;32.47;26.75;101533.97;5153573;27;20403;-54
2021/06/11 10:03:38;;;;;;;7.18;2.42;;;29.00;40.60;;;32.48;26.76;101526.72;5153514;27;20056;-51
2021/06/11 10:06:08;;;;;;;5.70;2.13;;;28.90;40.50;;;32.46;26.65;101528.72;5153410;27;20510;-52
2021/06/11 10:08:37;;;;;;;5.95;1.95;;;28.90;40.50;;;32.47;26.68;101525.00;5153463;27;20103;-55
2021/06/11 10:11:12;;;;;;;5.03;1.80;;;28.90;40.50;;;32.45;26.83;101521.63;5153728;27;20058;-56
2021/06/11 10:13:40;;;;;;;5.60;2.03;;;29.00;40.60;;;32.46;26.87;101526.00;5153615;27;20405;-56
2021/06/11 10:16:15;;;;;;;9.57;2.08;;;29.00;40.60;;;32.47;26.98;101528.56;5153247;27;20043;-56
2021/06/11 10:18:43;;;;;;;9.05;2.22;;;29.00;40.60;;;32.46;26.63;101520.59;5153404;27;20125;-56
2021/06/11 10:21:12;;;;;;;6.25;2.22;;;29.00;40.50;;;32.48;26.78;101515.91;5153717;27;20177;-54